Time;durP1;ratioP1;P1;durP2;ratioP2;P2;SDS_P1;SDS_P2;PMS_P1;PMS_P2;Temp;Humidity;BMP_temperature;BMP_pressure;BME280_temperature;BME280_humidity;BME280_pressure;Samples;Min_cycle;Max_cycle;Signal;HPM_P1;HPM_P2
2023/04/06 00:00:50;;;;;;;2.50;1.55;;;18.80;42.60;;;;;;5054350;28;20243;-75
2023/04/06 00:03:18;;;;;;;1.90;1.50;;;18.80;42.60;;;;;;5054207;28;20191;-76
2023/04/06 00:05:48;;;;;;;2.00;1.30;;;18.70;42.50;;;;;;5054042;28;20199;-75
2023/04/06 00:08:15;;;;;;;2.85;1.60;;;18.70;42.50;;;;;;5053864;28;20265;-74
2023/04/06 00:10:42;;;;;;;2.20;1.23;;;18.70;42.60;;;;;;5036523;28;20192;-75
2023/04/06 00:13:10;;;;;;;2.30;1.27;;;18.70;42.60;;;;;;5053237;28;20188;-75
2023/04/06 00:15:37;;;;;;;2.97;1.40;;;18.70;42.60;;;;;;5036335;28;20212;-76
2023/04/06 00:18:04;;;;;;;1.80;1.40;;;18.70;42.60;;;;;;5036354;28;20195;-75
2023/04/06 00:20:32;;;;;;;1.42;1.20;;;18.70;42.60;;;;;;5053815;28;20191;-75
2023/04/06 00:23:01;;;;;;;1.40;1.27;;;18.70;42.60;;;;;;5053778;28;20269;-75
2023/04/06 00:25:29;;;;;;;1.50;1.20;;;18.70;42.70;;;;;;5053793;28;20246;-75
2023/04/06 00:27:56;;;;;;;1.88;1.27;;;18.70;42.70;;;;;;5053294;28;20255;-75
2023/04/06 00:30:23;;;;;;;1.45;1.20;;;18.70;42.70;;;;;;5053787;28;20198;-75
2023/04/06 00:32:50;;;;;;;3.33;1.60;;;18.70;42.80;;;;;;5053726;28;20216;-75
2023/04/06 00:35:17;;;;;;;3.20;1.20;;;18.70;42.80;;;;;;5053543;28;20219;-75
2023/04/06 00:37:47;;;;;;;2.00;1.50;;;18.70;42.80;;;;;;5053763;28;20688;-75
2023/04/06 00:40:16;;;;;;;1.30;1.20;;;18.70;42.80;;;;;;5053371;28;20646;-75
2023/04/06 00:42:43;;;;;;;3.70;1.17;;;18.60;42.70;;;;;;5052820;28;20612;-75
2023/04/06 00:45:11;;;;;;;3.22;1.88;;;18.70;42.80;;;;;;5053609;28;20195;-76
2023/04/06 00:47:39;;;;;;;2.15;1.42;;;18.60;42.80;;;;;;5053312;28;20215;-75
2023/04/06 00:50:07;;;;;;;1.88;1.27;;;18.70;42.90;;;;;;5053397;28;20196;-75
2023/04/06 00:52:35;;;;;;;1.40;1.20;;;18.60;42.80;;;;;;5053098;28;20220;-75
2023/04/06 00:55:02;;;;;;;1.77;1.58;;;18.60;42.80;;;;;;5053124;28;20211;-75
2023/04/06 00:57:32;;;;;;;2.38;1.67;;;18.60;42.90;;;;;;5035066;28;20219;-75
2023/04/06 01:00:00;;;;;;;2.38;1.30;;;18.70;43.00;;;;;;5035227;28;20219;-75
2023/04/06 01:02:27;;;;;;;1.83;1.30;;;18.60;43.00;;;;;;5035252;28;20217;-75
2023/04/06 01:04:55;;;;;;;1.92;1.73;;;18.60;42.90;;;;;;5053119;28;20598;-75
2023/04/06 01:07:22;;;;;;;3.55;1.98;;;18.60;42.90;;;;;;5035200;28;20227;-76
2023/04/06 01:09:49;;;;;;;1.83;1.35;;;18.60;43.00;;;;;;5052771;28;20272;-75
2023/04/06 01:12:17;;;;;;;3.20;1.40;;;18.60;43.10;;;;;;5052277;28;20294;-75
2023/04/06 01:14:46;;;;;;;2.15;1.50;;;18.60;43.10;;;;;;5052865;28;20219;-74
2023/04/06 01:17:13;;;;;;;2.20;1.40;;;18.60;43.10;;;;;;5052760;28;20219;-75
2023/04/06 01:19:41;;;;;;;1.60;1.20;;;18.60;43.10;;;;;;5052770;28;20555;-76
2023/04/06 01:22:08;;;;;;;2.90;1.40;;;18.60;43.10;;;;;;5052414;28;20731;-75
2023/04/06 01:24:37;;;;;;;1.30;1.20;;;18.60;43.10;;;;;;5052657;28;20199;-75
2023/04/06 01:27:05;;;;;;;2.58;1.50;;;18.60;43.10;;;;;;5052381;28;20211;-74
2023/04/06 01:29:32;;;;;;;1.83;1.13;;;18.60;43.10;;;;;;5052428;28;20657;-76
2023/04/06 01:31:59;;;;;;;1.23;1.13;;;18.60;43.20;;;;;;5052178;28;20639;-75
2023/04/06 01:34:27;;;;;;;1.05;0.95;;;18.60;43.20;;;;;;5052513;28;20223;-76
2023/04/06 01:36:54;;;;;;;1.33;1.10;;;18.60;43.20;;;;;;5034852;28;20310;-75
2023/04/06 01:39:21;;;;;;;1.60;1.20;;;18.60;43.20;;;;;;5052488;28;20192;-75
2023/04/06 01:41:50;;;;;;;1.20;1.10;;;18.60;43.30;;;;;;5052459;28;20211;-75
2023/04/06 01:44:18;;;;;;;1.45;1.27;;;18.60;43.30;;;;;;5051379;28;20261;-74
2023/04/06 01:46:47;;;;;;;2.65;1.00;;;18.60;43.30;;;;;;5052308;28;20311;-75
2023/04/06 01:49:14;;;;;;;1.85;1.40;;;18.60;44.00;;;;;;5034511;28;20191;-75
2023/04/06 01:51:41;;;;;;;1.40;1.30;;;18.50;43.30;;;;;;5052356;28;20219;-74
2023/04/06 01:54:09;;;;;;;2.10;1.15;;;18.60;43.40;;;;;;5051926;28;20597;-75
2023/04/06 01:56:36;;;;;;;1.55;1.40;;;18.50;43.30;;;;;;5051838;28;20310;-75
2023/04/06 01:59:05;;;;;;;1.27;1.17;;;18.60;43.40;;;;;;5034142;28;20733;-75
2023/04/06 02:01:32;;;;;;;1.25;1.10;;;18.50;43.30;;;;;;5051910;28;20250;-76
2023/04/06 02:03:59;;;;;;;1.30;1.20;;;18.50;43.30;;;;;;5052013;28;20580;-75
2023/04/06 02:06:27;;;;;;;1.48;1.20;;;18.50;43.30;;;;;;5052115;28;20269;-75
2023/04/06 02:08:54;;;;;;;1.40;1.23;;;18.50;43.40;;;;;;5052069;28;20192;-75
2023/04/06 02:11:21;;;;;;;1.50;1.30;;;18.60;43.50;;;;;;5051919;28;20215;-75
2023/04/06 02:13:49;;;;;;;1.52;1.17;;;18.50;43.40;;;;;;5051033;28;20188;-75
2023/04/06 02:16:17;;;;;;;1.90;1.23;;;18.50;43.50;;;;;;5051823;28;20235;-75
2023/04/06 02:18:44;;;;;;;1.45;1.25;;;18.50;43.50;;;;;;5052048;28;20183;-75
2023/04/06 02:21:12;;;;;;;1.40;1.30;;;18.50;43.50;;;;;;5053005;28;20191;-75
2023/04/06 02:23:39;;;;;;;1.33;1.20;;;18.50;43.50;;;;;;5055653;28;20187;-75
2023/04/06 02:26:07;;;;;;;1.45;1.00;;;18.50;43.60;;;;;;5055627;28;20188;-75
2023/04/06 02:28:34;;;;;;;1.35;1.08;;;18.50;43.60;;;;;;5054932;28;20719;-75
2023/04/06 02:31:01;;;;;;;1.35;1.20;;;18.50;43.60;;;;;;5055892;28;20199;-75
2023/04/06 02:33:30;;;;;;;1.30;1.10;;;18.50;43.60;;;;;;5056199;28;20188;-75
2023/04/06 02:35:57;;;;;;;1.15;1.00;;;18.50;43.60;;;;;;5055506;28;20211;-75
2023/04/06 02:38:25;;;;;;;1.60;1.27;;;18.50;43.60;;;;;;5055950;28;20187;-75
2023/04/06 02:40:52;;;;;;;1.42;1.20;;;18.50;43.60;;;;;;5055831;28;20192;-74
2023/04/06 02:43:20;;;;;;;1.70;1.30;;;18.50;43.80;;;;;;5054680;28;20227;-76
2023/04/06 02:45:47;;;;;;;1.60;1.50;;;18.50;44.40;;;;;;5055536;28;20199;-75
2023/04/06 02:48:15;;;;;;;2.13;1.27;;;18.50;43.80;;;;;;5038154;28;20353;-75
2023/04/06 02:50:44;;;;;;;1.50;1.30;;;18.50;43.80;;;;;;5055938;28;20196;-76
2023/04/06 02:53:11;;;;;;;1.58;1.20;;;18.50;43.80;;;;;;5055642;28;20215;-74
2023/04/06 02:55:38;;;;;;;1.40;1.30;;;18.40;43.80;;;;;;5055606;28;20219;-75
2023/04/06 02:58:06;;;;;;;1.73;1.50;;;18.40;43.70;;;;;;5054599;28;20774;-76
2023/04/06 03:00:33;;;;;;;2.22;1.40;;;18.40;43.90;;;;;;5055267;28;20184;-75
2023/04/06 03:03:00;;;;;;;1.80;1.33;;;18.40;43.90;;;;;;5055508;28;20222;-75
2023/04/06 03:05:27;;;;;;;1.63;1.40;;;18.40;44.00;;;;;;5055409;28;20199;-76
2023/04/06 03:07:56;;;;;;;2.67;1.60;;;18.40;43.90;;;;;;5055400;28;20219;-75
2023/04/06 03:10:23;;;;;;;1.40;1.30;;;18.40;43.90;;;;;;5055102;28;20589;-75
2023/04/06 03:12:50;;;;;;;1.90;1.48;;;18.40;44.00;;;;;;5054418;28;20580;-75
2023/04/06 03:15:17;;;;;;;1.60;1.50;;;18.40;44.00;;;;;;5055170;28;20692;-75
2023/04/06 03:17:45;;;;;;;1.50;1.40;;;18.40;44.10;;;;;;5055077;28;20219;-76
2023/04/06 03:20:12;;;;;;;2.13;1.45;;;18.40;44.10;;;;;;5055169;28;20214;-75
2023/04/06 03:22:40;;;;;;;1.35;1.25;;;18.40;44.10;;;;;;5055166;28;20226;-76
2023/04/06 03:25:10;;;;;;;1.70;1.20;;;18.40;44.10;;;;;;5054997;28;20192;-75
2023/04/06 03:27:37;;;;;;;3.42;1.52;;;18.40;44.10;;;;;;5054354;28;20223;-75
2023/04/06 03:30:05;;;;;;;2.70;1.30;;;18.50;44.30;;;;;;5054867;28;20198;-75
2023/04/06 03:32:33;;;;;;;2.13;1.48;;;18.40;44.30;;;;;;5054513;28;20298;-75
2023/04/06 03:35:00;;;;;;;2.75;1.58;;;18.40;44.20;;;;;;5054673;28;20273;-75
2023/04/06 03:37:27;;;;;;;1.40;1.20;;;18.40;44.30;;;;;;5054752;28;20273;-75
2023/04/06 03:39:54;;;;;;;2.20;1.60;;;18.40;44.30;;;;;;5036688;28;20196;-75
2023/04/06 03:42:23;;;;;;;2.53;1.63;;;18.40;44.30;;;;;;5053927;28;20226;-75
2023/04/06 03:44:50;;;;;;;2.08;1.50;;;18.40;44.30;;;;;;5054599;28;20257;-75
2023/04/06 03:47:17;;;;;;;1.63;1.50;;;18.40;44.30;;;;;;5054593;28;20265;-76
2023/04/06 03:49:44;;;;;;;1.90;1.63;;;18.40;44.40;;;;;;5036662;28;20192;-75
2023/04/06 03:52:12;;;;;;;2.38;1.50;;;18.40;44.50;;;;;;5036999;28;20250;-76
2023/04/06 03:54:39;;;;;;;1.50;1.33;;;18.40;44.50;;;;;;5054450;28;20279;-75
2023/04/06 03:57:06;;;;;;;2.47;1.58;;;18.40;44.50;;;;;;5053865;28;20685;-75
2023/04/06 03:59:35;;;;;;;1.83;1.48;;;18.40;44.60;;;;;;5054384;28;20192;-75
2023/04/06 04:02:02;;;;;;;3.47;1.63;;;18.40;44.70;;;;;;5054088;28;20216;-75
2023/04/06 04:04:31;;;;;;;1.30;1.00;;;18.40;44.70;;;;;;5053942;28;20192;-75
2023/04/06 04:06:58;;;;;;;2.53;1.20;;;18.40;44.70;;;;;;5054196;28;20295;-75
2023/04/06 04:09:25;;;;;;;2.65;1.40;;;18.40;44.80;;;;;;5053882;28;20198;-75
2023/04/06 04:11:52;;;;;;;2.05;1.30;;;18.40;44.80;;;;;;5053553;28;20211;-75
2023/04/06 04:14:19;;;;;;;2.40;1.50;;;18.40;44.80;;;;;;5053810;28;20703;-75
2023/04/06 04:16:48;;;;;;;3.58;2.35;;;18.30;44.80;;;;;;5054048;28;20265;-75
2023/04/06 04:19:15;;;;;;;1.75;1.30;;;18.40;44.80;;;;;;5054018;28;20184;-75
2023/04/06 04:21:47;;;;;;;2.15;1.20;;;18.40;44.80;;;;;;5053999;28;20211;-76
2023/04/06 04:24:15;;;;;;;2.75;1.50;;;18.30;44.80;;;;;;5036262;28;20195;-75
2023/04/06 04:26:42;;;;;;;2.88;1.45;;;18.40;44.80;;;;;;5052872;28;20746;-75
2023/04/06 04:29:09;;;;;;;2.55;1.50;;;18.40;44.80;;;;;;5053781;28;20188;-74
2023/04/06 04:31:38;;;;;;;2.15;1.30;;;18.40;44.80;;;;;;5053973;28;20222;-75
2023/04/06 04:34:07;;;;;;;2.53;1.55;;;18.30;44.80;;;;;;5053467;28;20700;-75
2023/04/06 04:36:35;;;;;;;2.90;1.50;;;18.30;44.80;;;;;;5053393;28;20219;-75
2023/04/06 04:39:02;;;;;;;2.13;1.40;;;18.30;44.80;;;;;;5053282;28;20184;-75
2023/04/06 04:41:29;;;;;;;1.63;1.30;;;18.30;44.80;;;;;;5052875;28;20254;-75
2023/04/06 04:43:56;;;;;;;2.03;1.20;;;18.30;44.80;;;;;;5052593;28;20228;-75
2023/04/06 04:46:23;;;;;;;2.00;1.40;;;18.30;44.80;;;;;;5053420;28;20269;-76
2023/04/06 04:48:50;;;;;;;2.70;1.35;;;18.30;44.80;;;;;;5053420;28;20269;-76
2023/04/06 04:51:19;;;;;;;3.03;1.20;;;18.30;44.80;;;;;;5053111;28;20544;-75
2023/04/06 04:53:47;;;;;;;3.95;1.52;;;18.40;44.90;;;;;;5053494;28;20282;-75
2023/04/06 04:56:14;;;;;;;2.33;1.23;;;18.40;44.90;;;;;;5052251;28;20223;-75
2023/04/06 04:58:41;;;;;;;1.95;1.00;;;18.40;44.90;;;;;;5053355;28;20298;-75
2023/04/06 05:01:09;;;;;;;2.95;1.35;;;18.40;44.90;;;;;;5034970;28;20734;-75
2023/04/06 05:03:38;;;;;;;3.17;1.30;;;18.40;44.90;;;;;;5053411;28;20211;-75
2023/04/06 05:06:06;;;;;;;2.50;1.35;;;18.40;45.50;;;;;;5052829;28;20234;-75
2023/04/06 05:08:35;;;;;;;2.38;1.23;;;18.50;44.90;;;;;;5053094;28;20223;-75
2023/04/06 05:11:02;;;;;;;3.63;1.60;;;18.50;45.00;;;;;;5052000;28;20192;-75
2023/04/06 05:13:31;;;;;;;2.05;1.30;;;18.50;45.00;;;;;;5053188;28;20273;-76
2023/04/06 05:15:59;;;;;;;6.30;1.92;;;18.50;44.90;;;;;;5052275;28;20211;-77
2023/04/06 05:18:27;;;;;;;2.97;1.63;;;18.60;45.00;;;;;;5034600;28;20227;-77
2023/04/06 05:20:54;;;;;;;8.18;2.60;;;18.60;45.20;;;;;;5034788;28;20199;-77
2023/04/06 05:23:21;;;;;;;7.30;2.03;;;18.60;45.70;;;;;;5034877;28;20227;-77
2023/04/06 05:25:50;;;;;;;10.30;2.33;;;18.50;46.00;;;;;;5052039;28;20195;-78
2023/04/06 05:28:18;;;;;;;13.15;2.72;;;18.50;46.10;;;;;;5052214;28;20280;-73
2023/04/06 05:30:46;;;;;;;9.00;2.08;;;18.50;46.50;;;;;;5016844;28;20204;-73
2023/04/06 05:33:13;;;;;;;11.32;2.55;;;18.40;46.40;;;;;;5012482;28;20225;-72
2023/04/06 05:35:40;;;;;;;13.23;2.38;;;18.40;46.70;;;;;;5012034;28;20217;-73
2023/04/06 05:38:09;;;;;;;8.65;2.15;;;18.40;47.00;;;;;;5012667;28;20221;-72
2023/04/06 05:40:38;;;;;;;10.50;2.50;;;18.40;46.90;;;;;;5011620;28;20213;-73
2023/04/06 05:43:06;;;;;;;12.05;2.35;;;18.40;47.20;;;;;;5011992;28;20287;-73
2023/04/06 05:45:34;;;;;;;16.73;2.83;;;18.30;47.40;;;;;;5012446;28;20209;-73
2023/04/06 05:48:02;;;;;;;15.25;2.88;;;18.30;47.20;;;;;;5012466;28;20224;-72
2023/04/06 05:50:29;;;;;;;14.75;3.42;;;18.30;47.10;;;;;;5012327;28;20281;-72
2023/04/06 05:52:56;;;;;;;12.10;2.90;;;18.20;47.10;;;;;;5012853;28;20271;-72
2023/04/06 05:55:24;;;;;;;14.98;3.25;;;18.10;47.30;;;;;;5011070;28;20201;-72
2023/04/06 05:57:51;;;;;;;14.93;2.53;;;18.20;47.40;;;;;;5012515;28;20220;-72
2023/04/06 06:00:20;;;;;;;15.48;2.65;;;18.10;47.50;;;;;;5012093;28;20247;-75
2023/04/06 06:02:48;;;;;;;20.55;3.17;;;18.10;47.80;;;;;;4995346;28;20221;-74
2023/04/06 06:05:15;;;;;;;17.40;3.70;;;18.10;47.80;;;;;;5012368;28;20193;-74
2023/04/06 06:07:42;;;;;;;18.50;3.28;;;18.10;48.10;;;;;;4995396;28;20220;-71
2023/04/06 06:10:10;;;;;;;16.55;2.70;;;18.00;47.80;;;;;;5011200;28;20189;-74
2023/04/06 06:12:38;;;;;;;17.50;3.25;;;17.90;47.60;;;;;;4994380;28;20718;-72
2023/04/06 06:15:06;;;;;;;14.32;2.80;;;17.90;47.80;;;;;;5012436;28;20193;-72
2023/04/06 06:17:35;;;;;;;14.20;2.97;;;17.90;48.20;;;;;;5012316;28;20232;-72
2023/04/06 06:20:02;;;;;;;17.33;2.97;;;17.90;48.30;;;;;;5012370;28;20193;-73
2023/04/06 06:22:29;;;;;;;14.27;2.80;;;17.80;49.20;;;;;;5012115;28;20217;-73
2023/04/06 06:24:57;;;;;;;13.75;2.90;;;17.90;49.20;;;;;;4994996;28;20248;-74
2023/04/06 06:27:24;;;;;;;17.50;2.95;;;17.80;49.40;;;;;;5008572;28;20221;-75
2023/04/06 06:29:51;;;;;;;17.52;3.33;;;17.80;50.30;;;;;;4994644;28;20726;-74
2023/04/06 06:32:19;;;;;;;19.00;3.53;;;17.80;49.70;;;;;;5012308;28;20217;-74
2023/04/06 06:34:48;;;;;;;11.57;2.83;;;17.80;50.20;;;;;;4994771;28;20292;-74
2023/04/06 06:37:16;;;;;;;19.02;2.80;;;17.70;49.40;;;;;;5011880;28;20299;-72
2023/04/06 06:39:43;;;;;;;11.52;3.03;;;17.60;49.30;;;;;;5012311;28;20251;-75
2023/04/06 06:42:10;;;;;;;17.67;3.08;;;17.40;49.60;;;;;;5011276;28;20248;-74
2023/04/06 06:44:37;;;;;;;20.05;3.33;;;17.30;50.00;;;;;;4994670;28;20212;-74
2023/04/06 06:47:04;;;;;;;14.43;3.38;;;17.20;49.90;;;;;;5019123;28;20307;-74
2023/04/06 06:49:32;;;;;;;16.88;3.55;;;17.20;50.10;;;;;;5011676;28;20189;-75
2023/04/06 06:52:01;;;;;;;15.05;3.08;;;17.10;50.40;;;;;;5019753;28;20274;-75
2023/04/06 06:54:28;;;;;;;15.55;3.33;;;17.10;50.10;;;;;;5031564;28;20189;-74
2023/04/06 06:56:55;;;;;;;15.45;3.13;;;17.20;50.20;;;;;;5030726;28;20265;-75
2023/04/06 06:59:23;;;;;;;17.70;3.40;;;17.10;50.10;;;;;;5031599;28;20215;-74
2023/04/06 07:01:51;;;;;;;15.63;3.05;;;17.00;50.20;;;;;;5020446;28;20201;-75
2023/04/06 07:04:19;;;;;;;14.00;2.90;;;17.00;50.30;;;;;;5015498;28;20574;-73
2023/04/06 07:06:46;;;;;;;11.15;2.55;;;17.10;50.10;;;;;;5000678;28;20252;-75
2023/04/06 07:09:15;;;;;;;9.50;2.92;;;17.20;50.00;;;;;;5017852;28;20622;-75
2023/04/06 07:11:43;;;;;;;14.27;2.72;;;17.30;49.70;;;;;;5014506;28;20189;-75
2023/04/06 07:14:11;;;;;;;9.45;2.60;;;17.50;49.60;;;;;;5014465;28;20209;-74
2023/04/06 07:16:39;;;;;;;13.75;2.60;;;17.60;49.30;;;;;;5010478;28;20228;-74
2023/04/06 07:19:06;;;;;;;11.88;2.90;;;17.70;49.00;;;;;;5022655;28;20341;-75
2023/04/06 07:21:33;;;;;;;13.57;2.78;;;17.80;49.10;;;;;;5016891;28;20197;-74
2023/04/06 07:24:00;;;;;;;9.63;2.58;;;17.90;48.90;;;;;;5014298;28;20229;-74
2023/04/06 07:26:29;;;;;;;9.93;2.47;;;17.90;48.70;;;;;;5013276;28;20185;-74
2023/04/06 07:28:56;;;;;;;9.32;2.55;;;18.00;48.70;;;;;;5021238;28;20595;-74
2023/04/06 07:31:23;;;;;;;8.45;2.50;;;18.10;48.60;;;;;;5033702;28;20254;-75
2023/04/06 07:33:51;;;;;;;8.82;2.38;;;18.10;48.40;;;;;;5034174;28;20224;-75
2023/04/06 07:36:18;;;;;;;13.45;3.10;;;18.20;48.30;;;;;;5033732;28;20613;-75
2023/04/06 07:38:46;;;;;;;10.68;2.38;;;18.30;48.20;;;;;;5033641;28;20216;-74
2023/04/06 07:41:13;;;;;;;10.55;2.20;;;18.30;48.00;;;;;;5032791;28;20279;-74
2023/04/06 07:43:42;;;;;;;6.90;2.20;;;18.40;48.00;;;;;;5032960;28;20236;-74
2023/04/06 07:46:10;;;;;;;11.95;2.80;;;18.40;48.10;;;;;;5033672;28;20200;-74
2023/04/06 07:48:37;;;;;;;8.70;2.38;;;18.40;48.10;;;;;;5033636;28;20220;-74
2023/04/06 07:51:06;;;;;;;11.70;2.90;;;18.50;48.10;;;;;;5016004;28;20734;-75
2023/04/06 07:53:33;;;;;;;8.95;2.22;;;18.50;47.90;;;;;;5032883;28;20216;-75
2023/04/06 07:56:01;;;;;;;10.60;2.30;;;18.60;47.90;;;;;;5015822;28;20205;-75
2023/04/06 07:58:28;;;;;;;11.80;2.20;;;18.60;47.90;;;;;;5013647;28;20217;-75
2023/04/06 08:00:57;;;;;;;5.75;1.85;;;18.60;47.90;;;;;;5023004;28;20188;-75
2023/04/06 08:03:26;;;;;;;8.23;2.25;;;18.60;47.90;;;;;;5032920;28;20216;-73
2023/04/06 08:05:53;;;;;;;13.73;2.35;;;18.70;47.70;;;;;;5033260;28;20189;-72
2023/04/06 08:08:22;;;;;;;15.25;2.60;;;18.70;47.90;;;;;;5033389;28;20226;-71
2023/04/06 08:10:49;;;;;;;7.00;1.90;;;18.70;48.30;;;;;;5025371;28;20197;-73
2023/04/06 08:13:17;;;;;;;7.70;2.00;;;18.80;47.70;;;;;;5022255;28;20772;-72
2023/04/06 08:15:44;;;;;;;11.20;2.60;;;18.80;47.90;;;;;;5022947;28;20254;-72
2023/04/06 08:18:14;;;;;;;11.23;2.65;;;18.90;47.90;;;;;;5020732;28;20243;-71
2023/04/06 08:20:41;;;;;;;11.13;2.53;;;18.90;47.70;;;;;;5016731;28;20193;-72
2023/04/06 08:23:09;;;;;;;9.43;2.50;;;18.90;47.70;;;;;;5013353;28;20232;-71
2023/04/06 08:25:37;;;;;;;8.35;2.45;;;19.00;47.70;;;;;;5024213;28;20847;-72
2023/04/06 08:28:04;;;;;;;9.93;2.10;;;19.00;47.70;;;;;;5032751;28;20220;-74
2023/04/06 08:30:32;;;;;;;7.00;2.13;;;19.00;47.60;;;;;;5032712;28;20567;-74
2023/04/06 08:32:59;;;;;;;9.40;2.33;;;19.10;47.60;;;;;;5032658;28;20578;-73
2023/04/06 08:35:29;;;;;;;10.25;2.20;;;19.10;47.50;;;;;;5028685;28;20189;-72
2023/04/06 08:37:56;;;;;;;9.45;2.50;;;19.10;47.50;;;;;;5032658;28;20228;-73
2023/04/06 08:40:23;;;;;;;10.70;2.75;;;19.10;47.40;;;;;;5031684;28;20611;-73
2023/04/06 08:42:53;;;;;;;7.50;2.30;;;19.10;47.40;;;;;;5032169;28;20239;-73
2023/04/06 08:45:21;;;;;;;8.52;2.20;;;19.10;47.40;;;;;;5032510;28;20200;-73
2023/04/06 08:47:49;;;;;;;11.35;2.70;;;19.20;47.40;;;;;;5021993;28;20342;-73
2023/04/06 08:50:18;;;;;;;10.02;2.15;;;19.20;47.40;;;;;;5031888;28;20196;-73
2023/04/06 08:52:48;;;;;;;9.05;2.38;;;19.20;47.30;;;;;;5025929;28;20236;-72
2023/04/06 08:55:16;;;;;;;6.78;2.25;;;19.20;47.40;;;;;;5016071;28;20592;-73
2023/04/06 08:57:43;;;;;;;8.73;2.15;;;19.30;47.40;;;;;;5030202;28;20270;-73
2023/04/06 09:00:12;;;;;;;10.50;2.13;;;19.30;47.30;;;;;;5031669;28;20752;-73
2023/04/06 09:02:40;;;;;;;6.78;1.80;;;19.30;47.30;;;;;;5031829;28;20307;-73
2023/04/06 09:05:09;;;;;;;12.15;2.17;;;19.30;47.20;;;;;;5032134;28;20614;-73
2023/04/06 09:07:37;;;;;;;7.97;2.33;;;19.40;47.20;;;;;;5032038;28;20221;-72
2023/04/06 09:10:08;;;;;;;14.85;2.08;;;19.30;47.10;;;;;;5013740;28;20651;-73
2023/04/06 09:12:36;;;;;;;7.03;1.98;;;19.40;47.10;;;;;;5031511;28;20251;-73
2023/04/06 09:15:03;;;;;;;7.45;2.25;;;19.30;47.00;;;;;;5014160;28;20207;-73
2023/04/06 09:17:33;;;;;;;13.30;2.75;;;19.40;47.00;;;;;;5014118;28;20231;-72
2023/04/06 09:20:00;;;;;;;8.13;2.38;;;19.40;47.00;;;;;;5030926;28;20204;-73
2023/04/06 09:22:36;;;;;;;7.32;2.00;;;19.40;46.90;;;;;;5031549;28;20204;-73
2023/04/06 09:25:07;;;;;;;8.93;2.47;;;19.40;46.90;;;;;;5031382;28;20192;-77
2023/04/06 09:27:36;;;;;;;8.60;2.60;;;19.40;46.90;;;;;;5011985;28;20271;-79
2023/04/06 09:30:06;;;;;;;12.20;2.30;;;19.40;46.80;;;;;;5011763;28;20248;-79
2023/04/06 09:32:33;;;;;;;18.52;3.08;;;19.40;46.70;;;;;;5011525;28;20204;-79
2023/04/06 09:35:08;;;;;;;11.00;2.53;;;19.40;46.60;;;;;;5015419;28;20662;-78
2023/04/06 09:37:35;;;;;;;8.98;2.35;;;19.50;46.70;;;;;;5019185;28;20222;-78
2023/04/06 09:40:09;;;;;;;12.52;2.40;;;19.50;46.60;;;;;;5016944;28;20597;-71
2023/04/06 09:42:36;;;;;;;11.32;2.60;;;19.50;46.60;;;;;;5025910;28;20224;-74
2023/04/06 09:45:04;;;;;;;9.52;2.47;;;19.50;46.60;;;;;;5033443;28;20697;-72
2023/04/06 09:47:33;;;;;;;10.93;2.40;;;19.50;46.60;;;;;;5021195;28;20613;-77
2023/04/06 09:50:01;;;;;;;8.93;2.80;;;19.50;46.60;;;;;;5015730;28;20229;-78
2023/04/06 09:52:33;;;;;;;6.75;2.15;;;19.50;46.50;;;;;;5011785;28;20209;-75
2023/04/06 09:55:03;;;;;;;9.00;2.17;;;19.50;46.40;;;;;;5020591;28;20188;-75
2023/04/06 09:57:38;;;;;;;11.32;2.20;;;19.50;46.40;;;;;;5031060;28;20709;-75
2023/04/06 10:00:09;;;;;;;8.25;1.98;;;19.50;46.50;;;;;;5029461;28;20611;-76
2023/04/06 10:02:45;;;;;;;14.10;2.55;;;19.50;46.40;;;;;;5025497;28;20200;-75
2023/04/06 10:05:18;;;;;;;11.43;2.40;;;19.50;46.30;;;;;;5031586;28;20249;-72
2023/04/06 10:07:47;;;;;;;9.30;2.20;;;19.50;46.30;;;;;;5026656;28;20776;-75
2023/04/06 10:10:15;;;;;;;6.10;2.10;;;19.60;46.40;;;;;;5012260;28;20208;-74
2023/04/06 10:12:45;;;;;;;7.22;2.17;;;19.60;46.40;;;;;;5016385;28;20201;-73
2023/04/06 10:15:12;;;;;;;10.20;2.30;;;19.50;46.30;;;;;;5018008;28;20196;-75
2023/04/06 10:17:39;;;;;;;9.25;2.70;;;19.50;46.20;;;;;;5013349;28;20613;-75
2023/04/06 10:20:13;;;;;;;7.50;2.28;;;19.50;46.20;;;;;;5020824;28;20213;-73
2023/04/06 10:22:45;;;;;;;9.45;2.88;;;19.60;46.30;;;;;;5015071;28;20197;-75
2023/04/06 10:25:12;;;;;;;8.25;2.60;;;19.60;46.20;;;;;;5017627;28;20204;-75
2023/04/06 10:27:40;;;;;;;11.27;2.47;;;19.60;46.20;;;;;;5016250;28;20572;-75
2023/04/06 10:30:42;;;;;;;11.93;2.42;;;19.60;46.10;;;;;;5022073;28;20196;-73
2023/04/06 10:33:19;;;;;;;9.60;2.22;;;19.60;46.00;;;;;;5017142;28;20224;-73
2023/04/06 10:35:47;;;;;;;12.73;2.03;;;19.60;46.00;;;;;;5018096;28;20200;-72
2023/04/06 10:38:14;;;;;;;8.75;2.55;;;19.60;46.00;;;;;;5017437;28;20266;-74
2023/04/06 10:40:42;;;;;;;6.93;1.83;;;19.60;46.00;;;;;;5011687;28;20829;-73
2023/04/06 10:43:11;;;;;;;11.27;2.05;;;19.60;46.00;;;;;;5016661;28;20327;-74
2023/04/06 10:45:42;;;;;;;8.40;2.10;;;19.60;45.90;;;;;;5022357;28;20255;-73
2023/04/06 10:48:17;;;;;;;12.38;2.40;;;19.60;45.90;;;;;;5019046;28;20252;-73
2023/04/06 10:50:45;;;;;;;10.07;2.50;;;19.60;45.90;;;;;;5026315;28;20254;-73
2023/04/06 10:53:13;;;;;;;10.43;2.25;;;19.60;45.90;;;;;;5009742;28;20280;-73
2023/04/06 10:55:41;;;;;;;8.52;1.90;;;19.60;45.90;;;;;;5018402;28;20684;-73
2023/04/06 10:58:08;;;;;;;8.38;1.83;;;19.60;45.90;;;;;;5020975;28;20225;-71
2023/04/06 11:00:36;;;;;;;10.48;2.25;;;19.70;46.00;;;;;;5021110;28;20631;-73
2023/04/06 11:03:05;;;;;;;9.45;2.53;;;19.60;45.90;;;;;;5021625;28;21529;-73
2023/04/06 11:05:32;;;;;;;11.85;3.10;;;19.70;46.00;;;;;;5024566;28;20268;-73
2023/04/06 11:07:59;;;;;;;8.50;2.28;;;19.70;46.00;;;;;;5018061;28;20223;-71
2023/04/06 11:10:27;;;;;;;6.25;1.95;;;19.70;46.00;;;;;;5025048;28;20193;-71
2023/04/06 11:12:55;;;;;;;9.85;2.20;;;19.70;46.00;;;;;;5024006;28;20194;-73
2023/04/06 11:15:22;;;;;;;7.63;2.55;;;19.70;45.90;;;;;;5024700;28;20320;-73
2023/04/06 11:17:50;;;;;;;6.63;1.90;;;19.70;46.00;;;;;;5006926;28;20228;-73
2023/04/06 11:20:19;;;;;;;6.57;1.83;;;19.70;46.00;;;;;;5017498;28;20232;-73
2023/04/06 11:22:51;;;;;;;9.65;2.58;;;19.70;45.90;;;;;;5023018;28;20193;-74
2023/04/06 11:25:19;;;;;;;9.20;2.22;;;19.70;45.90;;;;;;5019661;28;20220;-73
2023/04/06 11:27:47;;;;;;;8.70;2.00;;;19.70;45.90;;;;;;5023688;28;20200;-73
2023/04/06 11:30:16;;;;;;;11.70;2.55;;;19.70;45.90;;;;;;5017736;28;20220;-73
2023/04/06 11:32:44;;;;;;;10.40;2.38;;;19.70;45.90;;;;;;5023570;28;20292;-73
2023/04/06 11:35:15;;;;;;;9.07;2.10;;;19.70;45.90;;;;;;5027723;28;20259;-73
2023/04/06 11:37:44;;;;;;;9.65;2.20;;;19.70;45.90;;;;;;5027042;28;20220;-73
2023/04/06 11:40:12;;;;;;;11.48;2.28;;;19.70;45.90;;;;;;5022398;28;20855;-74
2023/04/06 11:42:39;;;;;;;7.63;2.38;;;19.70;45.90;;;;;;5022461;28;20232;-74
2023/04/06 11:45:08;;;;;;;9.13;2.35;;;19.70;45.90;;;;;;5033439;28;20740;-74
2023/04/06 11:47:37;;;;;;;6.45;2.20;;;19.70;45.90;;;;;;5034166;28;20669;-73
2023/04/06 11:50:09;;;;;;;9.98;2.30;;;19.70;45.90;;;;;;5034370;28;20212;-74
2023/04/06 11:52:37;;;;;;;9.52;2.40;;;19.80;45.90;;;;;;5034009;28;20192;-73
2023/04/06 11:55:14;;;;;;;7.57;2.30;;;19.70;45.80;;;;;;5031480;28;20307;-75
2023/04/06 11:57:42;;;;;;;10.75;2.50;;;19.80;45.90;;;;;;5021665;28;20323;-76
2023/04/06 12:00:11;;;;;;;7.20;2.20;;;19.80;45.90;;;;;;5003879;28;20228;-75
2023/04/06 12:02:38;;;;;;;9.07;2.30;;;19.80;45.90;;;;;;5030589;28;20251;-74
2023/04/06 12:05:08;;;;;;;8.68;2.15;;;19.80;45.90;;;;;;5033225;28;20220;-75
2023/04/06 12:07:36;;;;;;;5.93;2.30;;;19.80;45.80;;;;;;5033673;28;20279;-72
2023/04/06 12:10:04;;;;;;;7.32;2.25;;;19.80;45.80;;;;;;5038976;28;20219;-75
2023/04/06 12:12:33;;;;;;;6.47;2.10;;;19.80;45.80;;;;;;5052876;28;20200;-73
2023/04/06 12:15:00;;;;;;;9.57;2.00;;;19.80;45.80;;;;;;5048399;28;20937;-75
2023/04/06 12:17:27;;;;;;;7.20;2.03;;;19.80;45.70;;;;;;5036480;28;20193;-74
2023/04/06 12:19:55;;;;;;;8.07;1.80;;;19.80;45.70;;;;;;5026283;28;20224;-74
2023/04/06 12:22:22;;;;;;;6.53;2.17;;;19.80;45.70;;;;;;5023831;28;20212;-73
2023/04/06 12:24:50;;;;;;;9.90;2.10;;;19.80;45.70;;;;;;5026329;28;20236;-74
2023/04/06 12:27:17;;;;;;;6.72;2.05;;;19.80;45.60;;;;;;5023371;28;20197;-73
2023/04/06 12:29:46;;;;;;;6.18;1.90;;;19.80;45.60;;;;;;5023663;28;20749;-73
2023/04/06 12:32:13;;;;;;;8.50;2.50;;;19.80;45.60;;;;;;5021831;28;20216;-72
2023/04/06 12:34:40;;;;;;;5.93;1.67;;;19.80;45.60;;;;;;5031924;28;20216;-73
2023/04/06 12:37:08;;;;;;;10.98;2.33;;;19.80;45.60;;;;;;5031978;28;20197;-74
2023/04/06 12:39:35;;;;;;;5.95;1.92;;;19.80;45.60;;;;;;5021654;28;20231;-73
2023/04/06 12:42:03;;;;;;;7.60;2.38;;;19.80;45.60;;;;;;5052059;28;20245;-73
2023/04/06 12:44:30;;;;;;;7.10;2.00;;;19.80;45.60;;;;;;5050269;28;20234;-72
2023/04/06 12:46:59;;;;;;;9.38;2.00;;;19.80;45.60;;;;;;5048960;28;20294;-74